Time;durP1;ratioP1;P1;durP2;ratioP2;P2;SDS_P1;SDS_P2;PMS_P1;PMS_P2;Temp;Humidity;BMP_temperature;BMP_pressure;BME280_temperature;BME280_humidity;BME280_pressure;Samples;Min_cycle;Max_cycle;Signal;HPM_P1;HPM_P2
2021/04/15 00:03:57;;;;;;;8.85;3.60;;;;;;;;;;8274529;28;20476;-75
2021/04/15 00:08:03;;;;;;;5.78;3.53;;;;;;;;;;8291556;28;20052;-75
2021/04/15 00:12:07;;;;;;;5.78;3.63;;;;;;;;;;8291314;28;20359;-75
2021/04/15 00:16:13;;;;;;;7.63;3.60;;;;;;;;;;8290473;28;20376;-75
2021/04/15 00:20:17;;;;;;;5.35;3.03;;;;;;;;;;8273702;28;20455;-75
2021/04/15 00:24:22;;;;;;;5.03;3.50;;;;;;;;;;8292228;28;20061;-74
2021/04/15 00:28:27;;;;;;;6.45;3.80;;;;;;;;;;8291099;28;20490;-76
2021/04/15 00:32:32;;;;;;;6.30;4.00;;;;;;;;;;8293047;28;20459;-74
2021/04/15 00:36:36;;;;;;;5.22;2.92;;;;;;;;;;8291089;28;20482;-75
2021/04/15 00:40:44;;;;;;;6.40;3.15;;;;;;;;;;8292216;28;20460;-74
2021/04/15 00:44:49;;;;;;;9.55;3.15;;;;;;;;;;8272761;28;20391;-74
2021/04/15 00:48:54;;;;;;;6.15;3.50;;;;;;;;;;8256548;28;20379;-74
2021/04/15 00:53:03;;;;;;;3.38;2.72;;;;;;;;;;8257158;28;20466;-74
2021/04/15 00:57:22;;;;;;;4.25;3.08;;;;;;;;;;8273188;28;20387;-75
2021/04/15 01:01:26;;;;;;;3.47;2.65;;;;;;;;;;8287376;28;20380;-75
2021/04/15 01:05:36;;;;;;;3.92;2.95;;;;;;;;;;8270902;28;20056;-75
2021/04/15 01:09:41;;;;;;;5.13;2.72;;;;;;;;;;8297309;28;20384;-75
2021/04/15 01:13:57;;;;;;;4.30;3.10;;;;;;;;;;8280799;28;20364;-75
2021/04/15 01:18:15;;;;;;;5.80;2.75;;;;;;;;;;8278469;28;20044;-75
2021/04/15 01:23:16;;;;;;;3.28;2.70;;;;;;;;;;8277993;28;20394;-75
2021/04/15 01:27:45;;;;;;;4.88;3.25;;;;;;;;;;8278399;28;20447;-75
2021/04/15 01:31:58;;;;;;;4.88;2.80;;;;;;;;;;8278974;28;20052;-75
2021/04/15 01:36:19;;;;;;;6.15;2.88;;;;;;;;;;8279954;28;20463;-75
2021/04/15 01:40:46;;;;;;;4.18;2.35;;;;;;;;;;8280079;28;20410;-75
2021/04/15 01:44:58;;;;;;;4.45;2.60;;;;;;;;;;8279138;28;20134;-75
2021/04/15 01:49:06;;;;;;;5.43;3.20;;;;;;;;;;8295226;28;20079;-75
2021/04/15 01:53:18;;;;;;;4.63;3.05;;;;;;;;;;8277305;28;20466;-74
2021/04/15 01:58:01;;;;;;;4.13;2.47;;;;;;;;;;8277812;28;20364;-75
2021/04/15 02:02:56;;;;;;;5.35;3.10;;;;;;;;;;8280360;28;20358;-75
2021/04/15 02:07:13;;;;;;;4.57;2.90;;;;;;;;;;8278935;28;20431;-74
2021/04/15 02:11:39;;;;;;;4.20;2.85;;;;;;;;;;8262772;28;20486;-76
2021/04/15 02:15:58;;;;;;;4.90;3.00;;;;;;;;;;8277853;28;20076;-74
2021/04/15 02:20:10;;;;;;;3.85;2.88;;;;;;;;;;8262208;28;20405;-75
2021/04/15 02:25:09;;;;;;;5.38;3.00;;;;;;;;;;8294395;28;20360;-76
2021/04/15 02:29:25;;;;;;;3.42;2.95;;;;;;;;;;8249543;28;20410;-75
2021/04/15 02:33:42;;;;;;;3.72;2.90;;;;;;;;;;8295317;28;20356;-75
2021/04/15 02:37:54;;;;;;;;;;;;;;;;;;8277958;28;20384;-75
2021/04/15 02:42:01;;;;;;;3.22;2.65;;;;;;;;;;8276501;28;20243;-74
2021/04/15 02:46:31;;;;;;;4.82;2.50;;;;;;;;;;8276992;28;20071;-76
2021/04/15 02:50:37;;;;;;;6.32;3.70;;;;;;;;;;8276853;28;20452;-74
2021/04/15 02:54:52;;;;;;;3.47;2.45;;;;;;;;;;8275066;28;20044;-75
2021/04/15 02:59:06;;;;;;;4.22;2.70;;;;;;;;;;8276475;28;20467;-75
2021/04/15 03:03:16;;;;;;;3.60;2.45;;;;;;;;;;8261184;28;20052;-75
2021/04/15 03:07:24;;;;;;;3.08;2.30;;;;;;;;;;8275975;28;20399;-75
2021/04/15 03:11:42;;;;;;;3.30;2.63;;;;;;;;;;8276932;28;20479;-75
2021/04/15 03:15:50;;;;;;;;;;;;;;;;;;8275656;28;20462;-75
2021/04/15 03:20:02;;;;;;;5.10;2.28;;;;;;;;;;8274982;28;20221;-75
2021/04/15 03:24:14;;;;;;;4.35;2.20;;;;;;;;;;8293936;28;20040;-75
2021/04/15 03:28:47;;;;;;;3.70;2.10;;;;;;;;;;8292542;28;20352;-75
2021/04/15 03:33:09;;;;;;;4.68;2.08;;;;;;;;;;8273171;28;20448;-75
2021/04/15 03:37:22;;;;;;;5.07;2.53;;;;;;;;;;8275663;28;20486;-75
2021/04/15 03:41:49;;;;;;;2.42;1.95;;;;;;;;;;8274631;28;20506;-75
2021/04/15 03:46:05;;;;;;;4.75;2.53;;;;;;;;;;8275467;28;20379;-75
2021/04/15 03:50:19;;;;;;;4.57;2.50;;;;;;;;;;8291161;28;20460;-75
2021/04/15 03:54:48;;;;;;;3.03;2.10;;;;;;;;;;8276557;28;20056;-75
2021/04/15 03:59:34;;;;;;;3.63;2.20;;;;;;;;;;8273542;28;20467;-75
2021/04/15 04:03:43;;;;;;;3.83;2.05;;;;;;;;;;8262324;28;20341;-75
2021/04/15 04:07:54;;;;;;;2.55;2.10;;;;;;;;;;8274906;28;20489;-75
2021/04/15 04:12:02;;;;;;;3.40;1.98;;;;;;;;;;8274736;28;20460;-75
2021/04/15 04:16:13;;;;;;;;;;;;;;;;;;8273792;28;20422;-75
2021/04/15 04:20:17;;;;;;;4.13;2.72;;;;;;;;;;8291223;28;20252;-75
2021/04/15 04:24:47;;;;;;;3.55;2.45;;;;;;;;;;8272965;28;20467;-75
2021/04/15 04:29:15;;;;;;;3.88;2.53;;;;;;;;;;8273765;28;20383;-75
2021/04/15 04:33:24;;;;;;;;;;;;;;;;;;8290883;28;20443;-75
2021/04/15 04:37:46;;;;;;;4.85;2.53;;;;;;;;;;8273833;28;20221;-75
2021/04/15 04:42:26;;;;;;;3.45;2.10;;;;;;;;;;8274603;28;20352;-75
2021/04/15 04:46:30;;;;;;;3.70;2.80;;;;;;;;;;8276133;28;20471;-75
2021/04/15 04:50:34;;;;;;;6.70;4.82;;;;;;;;;;8290789;28;20472;-75
2021/04/15 04:54:40;;;;;;;3.83;2.85;;;;;;;;;;8290030;28;20474;-74
2021/04/15 04:58:53;;;;;;;6.00;2.20;;;;;;;;;;8271210;28;20460;-75
2021/04/15 05:02:58;;;;;;;4.38;2.60;;;;;;;;;;8272815;28;20072;-75
2021/04/15 05:07:19;;;;;;;5.07;2.63;;;;;;;;;;8272976;28;20357;-74
2021/04/15 05:11:29;;;;;;;6.18;2.72;;;;;;;;;;8273091;28;20419;-75
2021/04/15 05:15:34;;;;;;;7.03;2.95;;;;;;;;;;8257023;28;20464;-75
2021/04/15 05:19:39;;;;;;;6.28;3.08;;;;;;;;;;8290471;28;20060;-75
2021/04/15 05:23:54;;;;;;;6.72;2.90;;;;;;;;;;8291377;28;20366;-74
2021/04/15 05:27:59;;;;;;;7.75;4.10;;;;;;;;;;8272680;28;20379;-75
2021/04/15 05:32:04;;;;;;;7.13;3.17;;;;;;;;;;8272036;28;20379;-75
2021/04/15 05:36:31;;;;;;;11.68;4.03;;;;;;;;;;8257354;28;20111;-74
2021/04/15 05:40:36;;;;;;;9.25;4.63;;;;;;;;;;8276606;28;20452;-74
2021/04/15 05:44:54;;;;;;;9.55;4.85;;;;;;;;;;8296087;28;20344;-75
2021/04/15 05:49:02;;;;;;;8.57;4.50;;;;;;;;;;8273323;28;20456;-74
2021/04/15 05:53:14;;;;;;;8.48;4.50;;;;;;;;;;8279994;28;20056;-74
2021/04/15 05:57:26;;;;;;;8.45;3.97;;;;;;;;;;8277374;28;20417;-75
2021/04/15 06:01:41;;;;;;;9.40;3.65;;;;;;;;;;8279659;28;20486;-75
2021/04/15 06:05:57;;;;;;;6.38;3.25;;;;;;;;;;8294951;28;20079;-75
2021/04/15 06:10:04;;;;;;;7.55;4.07;;;;;;;;;;8294517;28;20491;-75
2021/04/15 06:14:41;;;;;;;7.00;4.15;;;;;;;;;;8277816;28;20380;-75
2021/04/15 06:18:52;;;;;;;7.78;4.28;;;;;;;;;;8279987;28;20384;-75
2021/04/15 06:23:17;;;;;;;6.00;3.00;;;;;;;;;;8278971;28;20455;-75
2021/04/15 06:27:22;;;;;;;8.73;4.80;;;;;;;;;;8288908;28;20459;-75
2021/04/15 06:31:36;;;;;;;11.30;6.13;;;;;;;;;;8287980;28;20075;-76
2021/04/15 06:35:46;;;;;;;16.02;7.03;;;;;;;;;;8282508;28;20379;-75
2021/04/15 06:40:13;;;;;;;26.77;12.05;;;;;;;;;;8299509;28;20087;-74
2021/04/15 06:44:26;;;;;;;26.40;10.23;;;;;;;;;;8282386;28;20459;-75
2021/04/15 06:48:50;;;;;;;44.90;14.95;;;;;;;;;;8296151;28;20490;-74
2021/04/15 06:53:06;;;;;;;31.38;10.95;;;;;;;;;;8300564;28;20378;-75
2021/04/15 06:57:42;;;;;;;30.65;11.15;;;;;;;;;;8307488;28;20383;-75
2021/04/15 07:02:11;;;;;;;20.38;6.72;;;;;;;;;;8330895;28;20053;-74
2021/04/15 07:06:43;;;;;;;11.30;5.82;;;;;;;;;;8293353;28;20423;-74
2021/04/15 07:10:54;;;;;;;15.25;7.60;;;;;;;;;;8281688;28;20501;-74
2021/04/15 07:15:29;;;;;;;16.02;7.50;;;;;;;;;;8296760;28;20495;-75
2021/04/15 07:20:06;;;;;;;12.88;6.30;;;;;;;;;;8299878;28;20066;-74
2021/04/15 07:24:56;;;;;;;25.55;13.65;;;;;;;;;;8290362;28;20370;-74
2021/04/15 07:29:38;;;;;;;15.25;6.53;;;;;;;;;;8279023;28;20474;-75
2021/04/15 07:34:11;;;;;;;16.92;6.10;;;;;;;;;;8304276;28;20398;-74
2021/04/15 07:38:59;;;;;;;13.38;6.60;;;;;;;;;;8267630;28;20068;-74
2021/04/15 07:43:35;;;;;;;16.23;7.20;;;;;;;;;;8281735;28;20341;-73
2021/04/15 07:48:04;;;;;;;9.63;4.43;;;;;;;;;;8296817;28;20366;-75
2021/04/15 07:52:41;;;;;;;13.75;6.35;;;;;;;;;;8295291;28;20371;-75
2021/04/15 07:57:18;;;;;;;19.67;9.07;;;;;;;;;;8277431;28;20359;-74
2021/04/15 08:02:26;;;;;;;18.23;9.60;;;;;;;;;;8295623;28;20479;-75
2021/04/15 08:07:07;;;;;;;24.58;12.63;;;;;;;;;;8263168;28;20391;-74
2021/04/15 08:12:13;;;;;;;40.37;16.10;;;;;;;;;;8264982;28;20383;-74
2021/04/15 08:16:39;;;;;;;22.33;8.23;;;;;;;;;;8273893;28;20990;-76
2021/04/15 08:20:57;;;;;;;12.85;4.55;;;;;;;;;;8291393;28;20467;-73
2021/04/15 08:25:37;;;;;;;12.35;6.28;;;;;;;;;;8272963;28;20719;-75
2021/04/15 08:30:31;;;;;;;17.88;9.43;;;;;;;;;;8273696;28;20060;-73
2021/04/15 08:34:47;;;;;;;24.30;10.98;;;;;;;;;;8193716;28;20052;-76
2021/04/15 08:39:37;;;;;;;35.83;14.80;;;;;;;;;;8272491;28;20364;-74
2021/04/15 08:44:19;;;;;;;26.35;11.23;;;;;;;;;;8274852;28;20566;-76
2021/04/15 08:48:36;;;;;;;41.65;14.77;;;;;;;;;;8290665;28;20344;-74
2021/04/15 08:52:58;;;;;;;64.22;22.33;;;;;;;;;;8274454;28;20447;-75
2021/04/15 08:57:40;;;;;;;57.20;16.95;;;;;;;;;;8272430;28;20384;-75
2021/04/15 09:02:02;;;;;;;63.97;22.63;;;;;;;;;;8275868;28;20470;-75
2021/04/15 09:06:38;;;;;;;26.55;14.13;;;;;;;;;;8272691;28;20660;-75
2021/04/15 09:11:03;;;;;;;27.30;11.30;;;;;;;;;;8273134;28;20507;-76
2021/04/15 09:15:32;;;;;;;27.95;10.65;;;;;;;;;;8273692;28;20464;-76
2021/04/15 09:20:01;;;;;;;42.08;14.68;;;;;;;;;;8291420;28;20410;-76
2021/04/15 09:24:30;;;;;;;36.28;11.70;;;;;;;;;;8275411;28;20475;-74
2021/04/15 09:29:00;;;;;;;21.38;7.63;;;;;;;;;;8280940;28;20363;-76
2021/04/15 09:33:24;;;;;;;37.75;12.32;;;;;;;;;;8264538;28;20463;-74
2021/04/15 09:37:55;;;;;;;15.48;5.25;;;;;;;;;;8278676;28;20412;-76
2021/04/15 09:42:33;;;;;;;49.22;14.20;;;;;;;;;;8276760;28;20387;-76
2021/04/15 09:46:55;;;;;;;31.00;10.25;;;;;;;;;;8296755;28;20059;-74
2021/04/15 09:51:36;;;;;;;33.65;13.27;;;;;;;;;;8297281;28;20481;-75
2021/04/15 09:56:16;;;;;;;49.00;16.75;;;;;;;;;;8264776;28;20060;-74
2021/04/15 10:00:28;;;;;;;37.83;16.77;;;;;;;;;;8292104;28;20352;-74
2021/04/15 10:04:51;;;;;;;18.48;8.07;;;;;;;;;;8295548;28;20390;-74
2021/04/15 10:08:55;;;;;;;11.32;5.60;;;;;;;;;;8294953;28;20473;-76
2021/04/15 10:13:12;;;;;;;24.05;11.73;;;;;;;;;;8296808;28;20448;-74
2021/04/15 10:18:17;;;;;;;19.33;9.40;;;;;;;;;;8294190;28;20071;-75
2021/04/15 10:22:44;;;;;;;16.38;8.25;;;;;;;;;;8294924;28;20390;-75
2021/04/15 10:27:38;;;;;;;11.90;5.82;;;;;;;;;;8294344;28;20464;-75
2021/04/15 10:32:08;;;;;;;17.20;7.75;;;;;;;;;;8296341;28;20056;-74
2021/04/15 10:36:34;;;;;;;14.95;6.10;;;;;;;;;;8294068;28;20475;-74
2021/04/15 10:41:10;;;;;;;14.07;8.32;;;;;;;;;;8294797;28;20489;-76
2021/04/15 10:45:43;;;;;;;17.55;8.00;;;;;;;;;;8295121;28;20463;-74
2021/04/15 10:50:01;;;;;;;22.75;9.35;;;;;;;;;;8293706;28;20379;-75
2021/04/15 10:54:33;;;;;;;27.17;12.35;;;;;;;;;;8278342;28;20460;-74
2021/04/15 10:58:46;;;;;;;20.80;8.13;;;;;;;;;;8293295;28;20468;-76
2021/04/15 11:03:19;;;;;;;13.43;6.00;;;;;;;;;;8294673;28;20448;-74
2021/04/15 11:07:34;;;;;;;11.32;5.15;;;;;;;;;;8280791;28;20470;-74
2021/04/15 11:12:03;;;;;;;11.10;5.93;;;;;;;;;;8260486;28;20414;-74
2021/04/15 11:16:21;;;;;;;10.43;5.28;;;;;;;;;;8277471;28;20379;-74
2021/04/15 11:20:35;;;;;;;7.43;3.53;;;;;;;;;;8277214;28;20411;-74
2021/04/15 11:24:42;;;;;;;10.10;4.72;;;;;;;;;;8278116;28;20364;-75
2021/04/15 11:28:49;;;;;;;9.52;4.10;;;;;;;;;;8277842;28;20363;-75
2021/04/15 11:32:54;;;;;;;10.13;5.13;;;;;;;;;;8292704;28;20092;-74
2021/04/15 11:37:19;;;;;;;12.88;5.43;;;;;;;;;;8294337;28;20493;-76
2021/04/15 11:41:28;;;;;;;14.38;6.80;;;;;;;;;;8278408;28;20064;-75
2021/04/15 11:45:36;;;;;;;13.57;6.20;;;;;;;;;;8292695;28;20471;-74
2021/04/15 11:49:45;;;;;;;20.23;9.90;;;;;;;;;;8273810;28;20057;-74
2021/04/15 11:53:53;;;;;;;19.45;8.32;;;;;;;;;;8275141;28;20048;-76
2021/04/15 11:58:08;;;;;;;22.45;10.48;;;;;;;;;;8257868;28;20497;-74
2021/04/15 12:02:20;;;;;;;8.70;5.22;;;;;;;;;;8257536;28;20658;-75
2021/04/15 12:06:54;;;;;;;14.30;7.10;;;;;;;;;;8274202;28;20378;-75
2021/04/15 12:11:35;;;;;;;26.20;10.55;;;;;;;;;;8271144;28;20497;-77
2021/04/15 12:16:14;;;;;;;14.70;6.43;;;;;;;;;;8260097;28;20440;-76
2021/04/15 12:20:25;;;;;;;9.73;5.43;;;;;;;;;;8292152;28;20364;-76
2021/04/15 12:24:42;;;;;;;11.25;5.93;;;;;;;;;;8291722;28;20052;-76
2021/04/15 12:29:20;;;;;;;21.10;7.80;;;;;;;;;;8257740;28;20418;-76
2021/04/15 12:33:44;;;;;;;19.52;7.10;;;;;;;;;;8291124;28;20468;-76
2021/04/15 12:37:58;;;;;;;19.95;7.75;;;;;;;;;;8275589;28;20049;-74
2021/04/15 12:42:03;;;;;;;16.15;7.38;;;;;;;;;;8274407;28;20380;-74
2021/04/15 12:46:14;;;;;;;13.23;5.90;;;;;;;;;;8257488;28;20577;-75
2021/04/15 12:50:18;;;;;;;24.17;8.85;;;;;;;;;;8273339;28;20399;-75
2021/04/15 12:54:31;;;;;;;23.23;7.65;;;;;;;;;;8272757;28;20376;-75
2021/04/15 12:58:37;;;;;;;23.63;8.07;;;;;;;;;;8276180;28;20370;-76
2021/04/15 13:02:41;;;;;;;9.85;4.20;;;;;;;;;;8275241;28;20459;-75
2021/04/15 13:07:01;;;;;;;19.85;6.85;;;;;;;;;;8290623;28;20379;-75
2021/04/15 13:11:15;;;;;;;12.15;5.72;;;;;;;;;;8289862;28;20464;-75
2021/04/15 13:15:25;;;;;;;14.77;5.75;;;;;;;;;;8272576;28;20349;-76
2021/04/15 13:19:34;;;;;;;24.80;5.80;;;;;;;;;;8289761;28;20456;-74
2021/04/15 13:23:42;;;;;;;12.90;5.28;;;;;;;;;;8273539;28;20056;-76
2021/04/15 13:27:58;;;;;;;17.07;5.30;;;;;;;;;;8274349;28;20466;-74
2021/04/15 13:32:03;;;;;;;12.05;5.30;;;;;;;;;;8272666;28;20383;-75
2021/04/15 13:36:07;;;;;;;20.58;7.03;;;;;;;;;;8290582;28;20552;-75
2021/04/15 13:40:26;;;;;;;9.25;5.28;;;;;;;;;;8291182;28;20079;-74
2021/04/15 13:45:01;;;;;;;27.90;8.25;;;;;;;;;;8289768;28;20053;-75
2021/04/15 13:49:12;;;;;;;8.88;4.47;;;;;;;;;;8290324;28;20490;-75
2021/04/15 13:53:40;;;;;;;25.27;8.13;;;;;;;;;;8290492;28;20092;-74
2021/04/15 13:57:48;;;;;;;22.30;8.05;;;;;;;;;;8256962;28;20056;-76
2021/04/15 14:01:52;;;;;;;9.95;4.82;;;;;;;;;;8271820;28;20640;-75
2021/04/15 14:06:26;;;;;;;12.88;6.78;;;;;;;;;;8272240;28;20485;-76
2021/04/15 14:10:38;;;;;;;11.45;5.68;;;;;;;;;;8257054;28;20477;-75
2021/04/15 14:14:48;;;;;;;22.58;10.10;;;;;;;;;;8278598;28;20455;-75
2021/04/15 14:19:24;;;;;;;17.48;8.50;;;;;;;;;;8294805;28;20526;-75
2021/04/15 14:23:49;;;;;;;35.97;11.27;;;;;;;;;;8296778;28;20049;-75
2021/04/15 14:27:55;;;;;;;17.45;8.45;;;;;;;;;;8297139;28;20377;-75
2021/04/15 14:32:08;;;;;;;22.50;6.97;;;;;;;;;;8296503;28;20489;-76
2021/04/15 14:36:32;;;;;;;19.23;7.53;;;;;;;;;;8296059;28;20049;-76
2021/04/15 14:40:39;;;;;;;27.48;8.00;;;;;;;;;;8276909;28;20387;-76
2021/04/15 14:44:44;;;;;;;14.15;6.00;;;;;;;;;;8294758;28;20093;-75
2021/04/15 14:48:47;;;;;;;24.75;8.57;;;;;;;;;;8277972;28;20470;-75
2021/04/15 14:52:53;;;;;;;13.50;6.15;;;;;;;;;;8294740;28;20060;-76
2021/04/15 14:56:58;;;;;;;12.15;5.70;;;;;;;;;;8293202;28;20770;-75
2021/04/15 15:01:07;;;;;;;13.18;5.68;;;;;;;;;;8274184;28;20071;-75
2021/04/15 15:05:32;;;;;;;10.77;4.75;;;;;;;;;;8275887;28;20375;-76
2021/04/15 15:09:43;;;;;;;13.40;6.00;;;;;;;;;;8259269;28;20501;-75
2021/04/15 15:13:48;;;;;;;10.40;4.30;;;;;;;;;;8277873;28;20470;-76
2021/04/15 15:18:02;;;;;;;13.40;6.50;;;;;;;;;;8293300;28;20389;-75
2021/04/15 15:22:39;;;;;;;22.33;8.35;;;;;;;;;;8293012;28;20367;-76
2021/04/15 15:27:17;;;;;;;10.60;6.00;;;;;;;;;;8254882;28;20376;-74
2021/04/15 15:31:24;;;;;;;20.45;8.63;;;;;;;;;;8275629;28;20383;-75
2021/04/15 15:35:35;;;;;;;15.45;6.40;;;;;;;;;;8275834;28;20070;-74
2021/04/15 15:40:35;;;;;;;16.50;6.28;;;;;;;;;;8265549;28;20474;-74
2021/04/15 15:44:40;;;;;;;9.65;5.18;;;;;;;;;;8292009;28;20317;-74
2021/04/15 15:48:55;;;;;;;14.23;6.13;;;;;;;;;;8291835;28;20470;-75
2021/04/15 15:53:49;;;;;;;16.27;7.28;;;;;;;;;;8292444;28;20514;-74
2021/04/15 15:57:59;;;;;;;7.05;3.33;;;;;;;;;;8276338;28;20368;-74
2021/04/15 16:02:17;;;;;;;17.08;7.75;;;;;;;;;;8294754;28;20506;-75
2021/04/15 16:06:23;;;;;;;10.15;6.00;;;;;;;;;;8276541;28;20464;-74
2021/04/15 16:10:34;;;;;;;9.38;4.22;;;;;;;;;;8276147;28;20395;-74
2021/04/15 16:14:42;;;;;;;8.52;4.57;;;;;;;;;;8295038;28;20418;-74
2021/04/15 16:18:47;;;;;;;16.23;6.25;;;;;;;;;;8275407;28;20384;-74
2021/04/15 16:22:50;;;;;;;10.65;5.50;;;;;;;;;;8290642;28;20082;-75
2021/04/15 16:27:03;;;;;;;14.98;6.53;;;;;;;;;;8292956;28;20356;-75
2021/04/15 16:31:13;;;;;;;12.20;5.18;;;;;;;;;;8257428;28;20365;-74
2021/04/15 16:35:24;;;;;;;10.77;4.72;;;;;;;;;;8291381;28;20440;-74
2021/04/15 16:39:29;;;;;;;13.82;6.32;;;;;;;;;;8275055;28;20448;-74
2021/04/15 16:43:34;;;;;;;12.15;5.38;;;;;;;;;;8256777;28;20382;-75
2021/04/15 16:47:48;;;;;;;14.68;7.85;;;;;;;;;;8274011;28;20333;-74
2021/04/15 16:52:07;;;;;;;12.38;6.90;;;;;;;;;;8276264;28;20475;-74
2021/04/15 16:56:12;;;;;;;15.60;8.43;;;;;;;;;;8273791;28;20135;-74
2021/04/15 17:00:26;;;;;;;14.68;7.65;;;;;;;;;;8257736;28;20408;-75
2021/04/15 17:04:30;;;;;;;11.65;6.32;;;;;;;;;;8289461;28;20464;-74
2021/04/15 17:08:35;;;;;;;23.67;11.02;;;;;;;;;;8293213;28;20049;-76
2021/04/15 17:12:40;;;;;;;29.77;12.88;;;;;;;;;;8291208;28;20060;-74
2021/04/15 17:16:45;;;;;;;16.23;8.43;;;;;;;;;;8289963;28;20364;-74
2021/04/15 17:20:55;;;;;;;13.25;6.45;;;;;;;;;;8290685;28;20379;-75
2021/04/15 17:24:59;;;;;;;27.75;15.25;;;;;;;;;;8289456;28;20349;-73
2021/04/15 17:29:07;;;;;;;13.85;6.57;;;;;;;;;;8256661;28;20468;-74
2021/04/15 17:33:13;;;;;;;15.52;8.10;;;;;;;;;;8272360;28;20476;-74
2021/04/15 17:37:21;;;;;;;;;;;;;;;;;;8272392;28;20053;-74
2021/04/15 17:41:30;;;;;;;24.23;10.77;;;;;;;;;;8290997;28;20298;-74
2021/04/15 17:45:36;;;;;;;16.15;7.32;;;;;;;;;;8292734;28;20049;-75
2021/04/15 17:49:43;;;;;;;17.20;8.95;;;;;;;;;;8295818;28;20364;-74
2021/04/15 17:53:51;;;;;;;19.85;9.55;;;;;;;;;;8295453;28;20463;-74
2021/04/15 17:57:55;;;;;;;18.65;9.27;;;;;;;;;;8278269;28;20418;-74
2021/04/15 18:02:03;;;;;;;28.83;13.00;;;;;;;;;;8277295;28;20075;-74
2021/04/15 18:06:12;;;;;;;24.23;14.32;;;;;;;;;;8295518;28;20333;-75
2021/04/15 18:10:45;;;;;;;22.88;11.85;;;;;;;;;;8295656;28;20083;-74
2021/04/15 18:14:51;;;;;;;33.55;16.30;;;;;;;;;;8294377;28;20517;-74
2021/04/15 18:18:56;;;;;;;25.77;13.38;;;;;;;;;;8277683;28;20480;-74
2021/04/15 18:23:01;;;;;;;26.20;11.52;;;;;;;;;;8293537;28;20061;-74
2021/04/15 18:27:06;;;;;;;24.05;11.13;;;;;;;;;;8293854;28;20414;-74
2021/04/15 18:31:16;;;;;;;25.15;10.75;;;;;;;;;;8294636;28;20489;-74
2021/04/15 18:35:22;;;;;;;27.05;12.45;;;;;;;;;;8278437;28;20466;-74
2021/04/15 18:39:26;;;;;;;26.63;11.82;;;;;;;;;;8293988;28;20359;-74
2021/04/15 18:43:31;;;;;;;25.08;10.45;;;;;;;;;;8293960;28;20075;-74
2021/04/15 18:47:39;;;;;;;23.48;10.98;;;;;;;;;;8276858;28;20458;-74
2021/04/15 18:51:45;;;;;;;25.65;11.75;;;;;;;;;;8295254;28;20360;-76
2021/04/15 18:55:50;;;;;;;24.02;12.10;;;;;;;;;;8295642;28;20440;-74
2021/04/15 18:59:54;;;;;;;20.67;10.38;;;;;;;;;;8277572;28;20075;-74
2021/04/15 19:03:59;;;;;;;32.67;13.43;;;;;;;;;;8294755;28;20375;-74
2021/04/15 19:08:07;;;;;;;29.02;12.88;;;;;;;;;;8293400;28;20463;-74
2021/04/15 19:12:11;;;;;;;24.70;12.53;;;;;;;;;;8295262;28;20078;-73
2021/04/15 19:16:16;;;;;;;27.58;12.30;;;;;;;;;;8293730;28;20452;-74
2021/04/15 19:20:22;;;;;;;25.77;12.38;;;;;;;;;;8293358;28;20337;-74
2021/04/15 19:24:53;;;;;;;23.65;10.93;;;;;;;;;;8293124;28;20375;-74
2021/04/15 19:29:54;;;;;;;32.75;11.45;;;;;;;;;;8295292;28;20347;-74
2021/04/15 19:34:02;;;;;;;27.92;13.00;;;;;;;;;;8294592;28;20357;-75
2021/04/15 19:38:16;;;;;;;23.58;11.60;;;;;;;;;;8276702;28;20056;-74
2021/04/15 19:42:20;;;;;;;22.33;11.77;;;;;;;;;;8275672;28;20478;-74
2021/04/15 19:46:25;;;;;;;17.02;9.90;;;;;;;;;;8294127;28;20399;-75
2021/04/15 19:50:37;;;;;;;33.33;15.82;;;;;;;;;;8292034;28;20502;-75
2021/04/15 19:54:42;;;;;;;21.90;11.30;;;;;;;;;;8275468;28;20482;-74
2021/04/15 19:58:47;;;;;;;27.13;12.82;;;;;;;;;;8292231;28;20472;-74
2021/04/15 20:02:51;;;;;;;22.15;11.15;;;;;;;;;;8275971;28;20060;-74
2021/04/15 20:06:55;;;;;;;24.90;11.60;;;;;;;;;;8293227;28;20514;-75
2021/04/15 20:11:05;;;;;;;19.67;10.68;;;;;;;;;;8291254;28;20449;-75
2021/04/15 20:15:10;;;;;;;24.75;11.05;;;;;;;;;;8290510;28;20475;-74
2021/04/15 20:19:14;;;;;;;30.17;12.90;;;;;;;;;;8291910;28;20341;-74
2021/04/15 20:23:19;;;;;;;42.03;15.65;;;;;;;;;;8294623;28;20346;-74
2021/04/15 20:27:37;;;;;;;24.83;10.82;;;;;;;;;;8276600;28;20473;-74
2021/04/15 20:36:06;;;;;;;26.50;11.38;;;;;;;;;;8274032;28;20049;-73
2021/04/15 20:40:11;;;;;;;24.42;13.02;;;;;;;;;;8290570;28;20459;-74
2021/04/15 20:44:16;;;;;;;50.47;13.30;;;;;;;;;;8274707;28;20368;-75
2021/04/15 20:48:22;;;;;;;31.15;14.38;;;;;;;;;;8290693;28;20052;-74
2021/04/15 20:52:25;;;;;;;106.35;32.92;;;;;;;;;;8257743;28;20052;-74
2021/04/15 20:56:30;;;;;;;26.33;13.88;;;;;;;;;;8290907;28;20484;-74
2021/04/15 21:00:40;;;;;;;50.15;23.60;;;;;;;;;;8291122;28;20371;-74
2021/04/15 21:04:44;;;;;;;62.15;24.35;;;;;;;;;;8274473;28;20374;-74
2021/04/15 21:08:49;;;;;;;55.83;20.92;;;;;;;;;;8273228;28;20477;-74
2021/04/15 21:12:52;;;;;;;102.88;32.35;;;;;;;;;;8289579;28;20447;-75
2021/04/15 21:16:56;;;;;;;21.73;11.60;;;;;;;;;;8272590;28;20471;-74
2021/04/15 21:21:01;;;;;;;46.33;16.75;;;;;;;;;;8293671;28;20347;-74
2021/04/15 21:25:07;;;;;;;61.15;28.55;;;;;;;;;;8297789;28;20640;-73
2021/04/15 21:29:12;;;;;;;56.75;27.95;;;;;;;;;;8297603;28;20606;-74
2021/04/15 21:33:17;;;;;;;34.95;18.85;;;;;;;;;;8278668;28;20356;-74
2021/04/15 21:37:22;;;;;;;57.22;24.10;;;;;;;;;;8279075;28;20343;-74
2021/04/15 21:41:26;;;;;;;27.80;13.63;;;;;;;;;;8296438;28;20487;-74
2021/04/15 21:45:32;;;;;;;26.50;14.15;;;;;;;;;;8296279;28;20460;-74
2021/04/15 21:49:38;;;;;;;43.67;16.10;;;;;;;;;;8262439;28;20070;-75
2021/04/15 21:53:43;;;;;;;30.20;13.55;;;;;;;;;;8298579;28;20486;-74
2021/04/15 21:57:48;;;;;;;46.53;16.42;;;;;;;;;;8296577;28;20494;-74
2021/04/15 22:01:53;;;;;;;35.05;14.02;;;;;;;;;;8295429;28;20483;-75
2021/04/15 22:05:59;;;;;;;36.58;16.05;;;;;;;;;;8279212;28;20063;-75
2021/04/15 22:10:09;;;;;;;29.65;13.50;;;;;;;;;;8278353;28;20464;-74
2021/04/15 22:14:20;;;;;;;27.75;13.23;;;;;;;;;;8261200;28;20048;-74
2021/04/15 22:18:25;;;;;;;22.08;11.77;;;;;;;;;;8295219;28;20121;-74
2021/04/15 22:22:31;;;;;;;27.00;11.77;;;;;;;;;;8296792;28;20374;-74
2021/04/15 22:26:37;;;;;;;56.50;19.35;;;;;;;;;;8277479;28;20071;-74
2021/04/15 22:30:43;;;;;;;18.48;9.93;;;;;;;;;;8277047;28;20371;-75
2021/04/15 22:34:48;;;;;;;36.75;15.43;;;;;;;;;;8261080;28;20356;-74
2021/04/15 22:38:52;;;;;;;64.57;21.20;;;;;;;;;;8294188;28;20339;-75
2021/04/15 22:42:59;;;;;;;21.13;11.48;;;;;;;;;;8278357;28;20390;-75
2021/04/15 22:47:23;;;;;;;28.27;12.20;;;;;;;;;;8295528;28;20091;-75
2021/04/15 22:51:28;;;;;;;26.88;14.45;;;;;;;;;;8278382;28;20113;-74
2021/04/15 22:55:34;;;;;;;41.53;15.98;;;;;;;;;;8295229;28;20325;-75
2021/04/15 22:59:39;;;;;;;23.70;11.82;;;;;;;;;;8293025;28;20493;-75
2021/04/15 23:03:41;;;;;;;27.58;12.20;;;;;;;;;;8295244;28;20052;-74
2021/04/15 23:07:45;;;;;;;46.22;17.08;;;;;;;;;;8295497;28;20360;-75
2021/04/15 23:11:50;;;;;;;37.92;12.93;;;;;;;;;;8294739;28;20367;-75
2021/04/15 23:15:56;;;;;;;19.13;10.23;;;;;;;;;;8295223;28;20456;-75
2021/04/15 23:19:59;;;;;;;22.83;11.63;;;;;;;;;;8293766;28;20372;-74
2021/04/15 23:24:04;;;;;;;26.02;13.02;;;;;;;;;;8293570;28;20070;-74
2021/04/15 23:28:10;;;;;;;27.02;12.63;;;;;;;;;;8292789;28;20370;-75
2021/04/15 23:32:14;;;;;;;25.08;12.35;;;;;;;;;;8293702;28;20448;-74
2021/04/15 23:36:19;;;;;;;24.95;12.48;;;;;;;;;;8292340;28;20468;-75
2021/04/15 23:40:31;;;;;;;27.45;11.40;;;;;;;;;;8292592;28;20463;-74
2021/04/15 23:44:37;;;;;;;30.05;12.57;;;;;;;;;;8292063;28;20501;-74
2021/04/15 23:48:41;;;;;;;30.33;10.63;;;;;;;;;;8274869;28;20360;-74
2021/04/15 23:52:47;;;;;;;26.70;10.35;;;;;;;;;;8293021;28;20056;-75
2021/04/15 23:56:50;;;;;;;23.13;10.80;;;;;;;;;;8274745;28;20525;-74
